Time;durP1;ratioP1;P1;durP2;ratioP2;P2;SDS_P1;SDS_P2;PMS_P1;PMS_P2;Temp;Humidity;BMP_temperature;BMP_pressure;BME280_temperature;BME280_humidity;BME280_pressure;Samples;Min_cycle;Max_cycle;Signal;HPM_P1;HPM_P2
2021/08/03 00:02:22;;;;;;;8.38;4.47;;;14.70;95.20;;;;;;5072166;28;20483;-78
2021/08/03 00:04:51;;;;;;;8.60;4.15;;;14.70;95.10;;;;;;5073462;28;20032;-77
2021/08/03 00:07:19;;;;;;;13.02;4.22;;;14.80;95.00;;;;;;5071862;28;20058;-77
2021/08/03 00:09:46;;;;;;;8.40;4.03;;;14.70;94.90;;;;;;5071871;28;20170;-77
2021/08/03 00:12:14;;;;;;;7.47;4.00;;;14.70;94.90;;;;;;5073807;28;20073;-77
2021/08/03 00:14:48;;;;;;;7.47;4.03;;;14.60;94.90;;;;;;5071841;28;20425;-77
2021/08/03 00:17:21;;;;;;;7.75;3.83;;;14.60;95.00;;;;;;5073260;28;20107;-77
2021/08/03 00:19:47;;;;;;;9.65;4.30;;;14.50;95.00;;;;;;5073211;28;20028;-77
2021/08/03 00:22:13;;;;;;;7.90;3.75;;;14.50;95.10;;;;;;5073072;28;20085;-77
2021/08/03 00:24:39;;;;;;;10.60;4.15;;;14.40;95.10;;;;;;5073183;28;20035;-77
2021/08/03 00:27:06;;;;;;;;;;;14.40;95.10;;;;;;5072093;28;20039;-77
2021/08/03 00:29:34;;;;;;;6.30;3.33;;;14.30;95.10;;;;;;5073250;28;19915;-78
2021/08/03 00:32:00;;;;;;;9.70;4.68;;;14.20;95.00;;;;;;5073167;28;20028;-78
2021/08/03 00:34:26;;;;;;;8.80;4.00;;;14.20;95.10;;;;;;5055092;28;20033;-77
2021/08/03 00:36:52;;;;;;;8.90;4.05;;;14.10;95.20;;;;;;5071850;28;20686;-77
2021/08/03 00:39:17;;;;;;;9.80;4.25;;;14.00;95.30;;;;;;5071659;28;20039;-78
2021/08/03 00:42:00;;;;;;;8.98;4.68;;;14.00;95.50;;;;;;5071442;28;20123;-76
2021/08/03 00:44:49;;;;;;;7.50;4.13;;;14.00;95.60;;;;;;5072992;28;20033;-77
2021/08/03 00:47:17;;;;;;;10.38;4.38;;;14.00;95.70;;;;;;5073314;28;20021;-78
2021/08/03 00:49:43;;;;;;;10.27;4.75;;;13.90;95.60;;;;;;5071327;28;20467;-77
2021/08/03 00:52:12;;;;;;;9.75;4.95;;;14.00;95.60;;;;;;5071352;28;20051;-77
2021/08/03 00:54:38;;;;;;;8.77;4.22;;;14.00;95.60;;;;;;5072614;28;20082;-76
2021/08/03 00:57:06;;;;;;;8.00;3.90;;;14.00;95.60;;;;;;5072557;28;20060;-78
2021/08/03 00:59:31;;;;;;;7.10;3.53;;;13.90;95.60;;;;;;5071516;28;20382;-78
2021/08/03 01:01:57;;;;;;;8.48;4.18;;;13.90;95.60;;;;;;5072382;28;20044;-77
2021/08/03 01:04:23;;;;;;;8.13;4.68;;;13.90;95.60;;;;;;5071997;28;20421;-76
2021/08/03 01:06:56;;;;;;;10.95;4.63;;;13.80;95.70;;;;;;5072342;28;20039;-77
2021/08/03 01:09:46;;;;;;;8.57;4.32;;;13.80;95.80;;;;;;5072423;28;20029;-76
2021/08/03 01:12:27;;;;;;;8.63;4.15;;;13.80;95.80;;;;;;5070879;28;20035;-76
2021/08/03 01:15:05;;;;;;;9.05;4.40;;;13.80;95.90;;;;;;5072211;28;20502;-78
2021/08/03 01:17:43;;;;;;;7.75;4.25;;;13.80;95.90;;;;;;5072081;28;20039;-80
2021/08/03 01:20:22;;;;;;;10.25;4.20;;;13.80;96.00;;;;;;5072195;28;20071;-77
2021/08/03 01:23:09;;;;;;;9.07;4.00;;;13.80;95.90;;;;;;5070744;28;20032;-77
2021/08/03 01:25:53;;;;;;;;;;;13.80;96.00;;;;;;5071252;28;20031;-77
2021/08/03 01:28:47;;;;;;;9.15;4.43;;;13.80;95.90;;;;;;5072212;28;19904;-78
2021/08/03 01:31:22;;;;;;;8.70;3.97;;;13.80;95.80;;;;;;5069056;28;20029;-77
2021/08/03 01:33:53;;;;;;;8.32;4.15;;;13.80;95.70;;;;;;5071908;28;20040;-77
2021/08/03 01:36:19;;;;;;;9.02;4.63;;;13.70;95.70;;;;;;5071824;28;20020;-76
2021/08/03 01:38:47;;;;;;;;;;;13.70;95.80;;;;;;5072362;28;20028;-77
2021/08/03 01:41:18;;;;;;;7.95;4.28;;;13.70;95.90;;;;;;5071797;28;19904;-77
2021/08/03 01:43:47;;;;;;;9.45;4.32;;;13.80;95.80;;;;;;5071690;28;20036;-77
2021/08/03 01:46:16;;;;;;;10.07;5.15;;;13.80;95.90;;;;;;5070344;28;20540;-79
2021/08/03 01:48:44;;;;;;;9.98;4.30;;;13.80;95.90;;;;;;5071680;28;20052;-78
2021/08/03 01:51:10;;;;;;;11.63;4.65;;;13.80;96.00;;;;;;5070280;28;20125;-76
2021/08/03 01:53:38;;;;;;;8.38;4.53;;;13.90;96.00;;;;;;5070231;28;20047;-77
2021/08/03 01:56:05;;;;;;;11.30;4.78;;;13.90;96.10;;;;;;5071475;28;20488;-77
2021/08/03 01:58:32;;;;;;;11.70;4.53;;;13.90;96.10;;;;;;5071432;28;20277;-78
2021/08/03 02:00:58;;;;;;;9.20;4.65;;;14.00;96.20;;;;;;5071243;28;20522;-77
2021/08/03 02:03:26;;;;;;;9.32;4.65;;;14.10;96.20;;;;;;5071476;28;20455;-78
2021/08/03 02:05:53;;;;;;;9.93;4.65;;;14.20;96.20;;;;;;5070170;28;20112;-79
2021/08/03 02:08:21;;;;;;;8.05;3.95;;;14.20;96.20;;;;;;5069973;28;20024;-77
2021/08/03 02:10:47;;;;;;;9.48;4.53;;;14.30;96.20;;;;;;5071372;28;20025;-76
2021/08/03 02:13:15;;;;;;;9.88;4.82;;;14.40;96.10;;;;;;5071223;28;20029;-76
2021/08/03 02:15:41;;;;;;;11.00;4.32;;;14.50;96.10;;;;;;5069331;28;20085;-77
2021/08/03 02:18:08;;;;;;;9.23;4.70;;;14.50;96.00;;;;;;5069609;28;20127;-77
2021/08/03 02:20:33;;;;;;;8.02;4.47;;;14.60;95.90;;;;;;5071521;28;20040;-77
2021/08/03 02:22:59;;;;;;;8.75;4.22;;;14.60;96.00;;;;;;5069804;28;20028;-78
2021/08/03 02:25:25;;;;;;;8.95;4.72;;;14.70;95.80;;;;;;5069880;28;20025;-76
2021/08/03 02:27:53;;;;;;;;;;;14.70;95.70;;;;;;5070383;28;20521;-78
2021/08/03 02:30:19;;;;;;;10.20;4.35;;;14.80;95.70;;;;;;5071117;28;19904;-76
2021/08/03 02:33:06;;;;;;;8.90;4.25;;;14.80;95.60;;;;;;5071114;28;20032;-78
2021/08/03 02:35:55;;;;;;;10.18;4.22;;;14.80;95.70;;;;;;5071096;28;20025;-77
2021/08/03 02:38:25;;;;;;;9.60;4.75;;;14.80;95.70;;;;;;5070927;28;20021;-78
2021/08/03 02:40:53;;;;;;;12.57;4.40;;;14.80;95.60;;;;;;5071059;28;20108;-76
2021/08/03 02:43:22;;;;;;;10.02;4.32;;;14.80;95.60;;;;;;5071041;28;20491;-78
2021/08/03 02:45:48;;;;;;;10.65;4.10;;;14.80;95.60;;;;;;5070970;28;20064;-76
2021/08/03 02:48:16;;;;;;;8.40;4.40;;;14.80;95.60;;;;;;5069697;28;20082;-76
2021/08/03 02:50:44;;;;;;;10.10;4.32;;;14.80;95.60;;;;;;5071056;28;20021;-77
2021/08/03 02:53:33;;;;;;;10.23;4.30;;;14.80;95.60;;;;;;5071425;28;20028;-77
2021/08/03 02:56:14;;;;;;;10.02;4.50;;;14.90;95.70;;;;;;5070908;28;20021;-76
2021/08/03 02:58:52;;;;;;;9.45;4.32;;;14.90;95.60;;;;;;5070898;28;20024;-76
2021/08/03 03:01:21;;;;;;;8.57;4.13;;;14.80;95.60;;;;;;5070609;28;20044;-77
2021/08/03 03:03:52;;;;;;;8.82;4.50;;;14.80;95.60;;;;;;5069524;28;20037;-76
2021/08/03 03:06:21;;;;;;;8.27;4.07;;;14.90;95.60;;;;;;5070815;28;20414;-77
2021/08/03 03:08:47;;;;;;;9.00;4.38;;;14.90;95.60;;;;;;5069602;28;20028;-78
2021/08/03 03:11:15;;;;;;;8.70;4.28;;;14.90;95.60;;;;;;5070762;28;20025;-78
2021/08/03 03:13:55;;;;;;;8.85;4.10;;;14.90;95.70;;;;;;5070760;28;20041;-76
2021/08/03 03:16:23;;;;;;;9.68;4.80;;;14.80;95.80;;;;;;5070578;28;20036;-76
2021/08/03 03:18:50;;;;;;;10.65;4.88;;;14.90;95.90;;;;;;5070765;28;20025;-77
2021/08/03 03:21:21;;;;;;;9.07;4.38;;;14.90;95.90;;;;;;5070665;28;20032;-79
2021/08/03 03:23:52;;;;;;;7.97;3.80;;;14.90;96.00;;;;;;5070575;28;20017;-76
2021/08/03 03:26:19;;;;;;;8.52;4.57;;;14.90;95.90;;;;;;5070492;28;20104;-77
2021/08/03 03:28:45;;;;;;;11.43;4.35;;;14.90;95.90;;;;;;5072062;28;20024;-77
2021/08/03 03:31:11;;;;;;;;;;;14.90;95.90;;;;;;5073460;28;20475;-79
2021/08/03 03:33:41;;;;;;;8.73;4.68;;;14.90;95.90;;;;;;5074434;28;19943;-77
2021/08/03 03:36:09;;;;;;;7.78;3.88;;;14.90;95.80;;;;;;5074167;28;20110;-78
2021/08/03 03:38:38;;;;;;;9.57;4.10;;;15.00;95.90;;;;;;5074179;28;20150;-77
2021/08/03 03:41:05;;;;;;;8.77;4.20;;;15.00;95.90;;;;;;5072774;28;20051;-77
2021/08/03 03:43:31;;;;;;;7.05;3.72;;;15.00;95.90;;;;;;5074044;28;20035;-78
2021/08/03 03:46:09;;;;;;;;;;;15.00;95.80;;;;;;5073334;28;20028;-77
2021/08/03 03:48:44;;;;;;;;;;;15.00;95.80;;;;;;5074501;28;19904;-76
2021/08/03 03:51:15;;;;;;;8.82;3.95;;;15.00;95.60;;;;;;5073953;28;19909;-78
2021/08/03 03:53:48;;;;;;;9.82;4.00;;;15.00;95.70;;;;;;5074232;28;20035;-77
2021/08/03 03:56:17;;;;;;;10.95;4.95;;;14.90;95.80;;;;;;5072382;28;20027;-79
2021/08/03 03:58:51;;;;;;;8.40;4.10;;;15.00;95.80;;;;;;5073545;28;20502;-77
2021/08/03 04:01:25;;;;;;;10.73;4.63;;;14.90;95.90;;;;;;5073348;28;20057;-78
2021/08/03 04:03:57;;;;;;;10.07;4.72;;;15.00;95.90;;;;;;5073561;28;20487;-78
2021/08/03 04:06:24;;;;;;;10.07;4.78;;;15.00;95.90;;;;;;5073555;28;20024;-77
2021/08/03 04:08:50;;;;;;;9.30;4.47;;;15.00;95.80;;;;;;5073588;28;20020;-75
2021/08/03 04:11:16;;;;;;;8.90;4.32;;;15.00;95.80;;;;;;5073573;28;20021;-76
2021/08/03 04:13:44;;;;;;;8.93;4.30;;;15.00;95.90;;;;;;5072386;28;20029;-77
2021/08/03 04:16:10;;;;;;;10.55;4.30;;;15.10;95.90;;;;;;5073490;28;20036;-76
2021/08/03 04:18:36;;;;;;;10.35;4.75;;;15.10;96.10;;;;;;5055524;28;20040;-77
2021/08/03 04:21:02;;;;;;;14.02;4.82;;;15.20;95.90;;;;;;5073460;28;20089;-77
2021/08/03 04:23:28;;;;;;;9.50;4.60;;;15.10;95.90;;;;;;5073306;28;20369;-76
2021/08/03 04:25:54;;;;;;;13.23;5.35;;;15.20;95.80;;;;;;5072188;28;20025;-76
2021/08/03 04:28:20;;;;;;;8.95;4.85;;;15.20;95.80;;;;;;5071814;28;20040;-76
2021/08/03 04:30:47;;;;;;;9.65;4.50;;;15.20;95.80;;;;;;5073063;28;20031;-76
2021/08/03 04:33:13;;;;;;;10.57;4.30;;;15.20;95.90;;;;;;5071740;28;20454;-77
2021/08/03 04:35:38;;;;;;;;;;;15.10;96.00;;;;;;5073548;28;20059;-77
2021/08/03 04:38:04;;;;;;;10.15;4.85;;;15.10;96.00;;;;;;5071672;28;19970;-77
2021/08/03 04:40:30;;;;;;;7.82;4.32;;;15.20;95.90;;;;;;5072147;28;20033;-77
2021/08/03 04:42:56;;;;;;;9.40;4.45;;;15.20;96.00;;;;;;5055061;28;20033;-76
2021/08/03 04:45:22;;;;;;;9.65;5.10;;;15.20;96.00;;;;;;5072882;28;20019;-77
2021/08/03 04:47:50;;;;;;;9.75;4.47;;;15.20;96.00;;;;;;5072698;28;20028;-76
2021/08/03 04:50:21;;;;;;;9.25;3.90;;;15.20;96.10;;;;;;5072814;28;20486;-77
2021/08/03 04:52:47;;;;;;;9.25;4.10;;;15.20;96.10;;;;;;5071772;28;20039;-76
2021/08/03 04:55:13;;;;;;;9.70;3.85;;;15.10;96.10;;;;;;5071360;28;20036;-77
2021/08/03 04:57:39;;;;;;;7.25;3.72;;;15.00;96.20;;;;;;5072628;28;20052;-78
2021/08/03 05:00:06;;;;;;;12.85;5.05;;;15.00;96.30;;;;;;5072385;28;20411;-77
2021/08/03 05:02:33;;;;;;;11.35;4.80;;;15.10;96.30;;;;;;5071277;28;20032;-77
2021/08/03 05:04:58;;;;;;;;;;;15.10;96.30;;;;;;5071589;28;20034;-77
2021/08/03 05:07:24;;;;;;;8.40;4.10;;;15.10;96.20;;;;;;5071214;28;19912;-77
2021/08/03 05:09:50;;;;;;;8.68;4.32;;;15.10;96.20;;;;;;5054545;28;20082;-77
2021/08/03 05:12:16;;;;;;;10.32;4.63;;;15.00;96.30;;;;;;5071024;28;20036;-76
2021/08/03 05:14:41;;;;;;;9.27;4.28;;;15.10;96.40;;;;;;5072256;28;20036;-77
2021/08/03 05:17:07;;;;;;;9.20;4.03;;;15.10;96.40;;;;;;5071009;28;20044;-77
2021/08/03 05:19:33;;;;;;;9.77;4.18;;;15.20;96.50;;;;;;5070761;28;20123;-78
2021/08/03 05:21:59;;;;;;;7.20;3.90;;;15.20;96.40;;;;;;5071940;28;20457;-76
2021/08/03 05:24:27;;;;;;;8.45;4.25;;;15.30;96.40;;;;;;5072123;28;20032;-77
2021/08/03 05:26:56;;;;;;;10.80;4.30;;;15.40;96.40;;;;;;5071814;28;20079;-78
2021/08/03 05:29:22;;;;;;;10.02;4.93;;;15.40;96.30;;;;;;5070247;28;20043;-77
2021/08/03 05:31:48;;;;;;;9.50;4.32;;;15.50;96.30;;;;;;5070334;28;20074;-78
2021/08/03 05:34:13;;;;;;;12.40;4.63;;;15.50;96.30;;;;;;5071930;28;20037;-77
2021/08/03 05:36:42;;;;;;;13.95;5.40;;;15.60;96.20;;;;;;5070632;28;20017;-76
2021/08/03 05:39:09;;;;;;;12.07;5.45;;;15.70;96.10;;;;;;5071786;28;20510;-76
2021/08/03 05:41:35;;;;;;;11.75;5.60;;;15.70;96.00;;;;;;5071776;28;20025;-78
2021/08/03 05:44:01;;;;;;;14.40;5.25;;;15.70;96.00;;;;;;5071578;28;20039;-76
2021/08/03 05:46:26;;;;;;;14.05;6.20;;;15.80;96.00;;;;;;5070533;28;20127;-76
2021/08/03 05:48:52;;;;;;;11.43;5.45;;;15.90;95.90;;;;;;5071652;28;20033;-76
2021/08/03 05:51:17;;;;;;;13.20;5.57;;;15.90;95.90;;;;;;5071361;28;20042;-77
2021/08/03 05:53:43;;;;;;;13.13;5.43;;;15.90;95.90;;;;;;5071466;28;20025;-77
2021/08/03 05:56:09;;;;;;;11.02;5.20;;;16.00;95.80;;;;;;5070366;28;20404;-76
2021/08/03 05:58:34;;;;;;;12.00;5.40;;;16.00;95.80;;;;;;5071874;28;20463;-78
2021/08/03 06:01:00;;;;;;;14.27;4.68;;;16.10;95.80;;;;;;5069984;28;20109;-77
2021/08/03 06:03:26;;;;;;;10.82;4.78;;;16.10;95.70;;;;;;5070252;28;20039;-78
2021/08/03 06:05:52;;;;;;;10.02;5.15;;;16.10;95.60;;;;;;5070157;28;20112;-76
2021/08/03 06:08:23;;;;;;;12.82;5.40;;;16.10;95.60;;;;;;5070007;28;20090;-77
2021/08/03 06:10:51;;;;;;;10.82;5.57;;;16.20;95.60;;;;;;5069852;28;20024;-77
2021/08/03 06:13:20;;;;;;;14.85;5.43;;;16.20;95.50;;;;;;5071156;28;20107;-77
2021/08/03 06:15:49;;;;;;;12.32;5.10;;;16.20;95.50;;;;;;5071379;28;20522;-77
2021/08/03 06:18:24;;;;;;;9.85;5.10;;;16.20;95.50;;;;;;5069724;28;20021;-78
2021/08/03 06:20:50;;;;;;;14.52;5.20;;;16.20;95.50;;;;;;5071062;28;20025;-77
2021/08/03 06:23:17;;;;;;;11.57;5.47;;;16.20;95.40;;;;;;5070048;28;20107;-77
2021/08/03 06:25:43;;;;;;;12.43;4.97;;;16.20;95.50;;;;;;5071035;28;20024;-77
2021/08/03 06:28:11;;;;;;;12.40;5.45;;;16.20;95.50;;;;;;5070744;28;20024;-78
2021/08/03 06:30:38;;;;;;;10.13;5.10;;;16.20;95.50;;;;;;5070975;28;20032;-77
2021/08/03 06:33:06;;;;;;;9.95;4.82;;;16.30;95.50;;;;;;5069702;28;20028;-76
2021/08/03 06:35:32;;;;;;;12.40;5.25;;;16.30;95.50;;;;;;5069618;28;20025;-76
2021/08/03 06:37:58;;;;;;;16.27;7.63;;;16.40;95.50;;;;;;5052615;28;20037;-77
2021/08/03 06:40:24;;;;;;;11.00;5.03;;;16.40;95.50;;;;;;5070801;28;20029;-77
2021/08/03 06:43:17;;;;;;;8.90;4.53;;;16.50;95.50;;;;;;5070700;28;20052;-77
2021/08/03 06:45:48;;;;;;;11.95;4.65;;;16.50;95.40;;;;;;5070941;28;20025;-77
2021/08/03 06:48:28;;;;;;;10.95;5.15;;;16.60;95.30;;;;;;5070653;28;20025;-78
2021/08/03 06:51:11;;;;;;;9.82;4.65;;;16.70;95.30;;;;;;5069843;28;20028;-76
2021/08/03 06:53:39;;;;;;;9.73;4.90;;;16.70;95.20;;;;;;5070765;28;20093;-76
2021/08/03 06:56:05;;;;;;;11.02;5.07;;;16.80;95.20;;;;;;5070671;28;20051;-77
2021/08/03 06:58:53;;;;;;;10.02;4.70;;;16.80;95.10;;;;;;5069239;28;20094;-78
2021/08/03 07:01:32;;;;;;;8.63;4.30;;;16.90;95.10;;;;;;5069155;28;20511;-76
2021/08/03 07:04:05;;;;;;;10.90;4.85;;;17.00;95.00;;;;;;5073733;28;20051;-77
2021/08/03 07:06:38;;;;;;;9.48;4.63;;;17.10;94.90;;;;;;5074372;28;20021;-76
2021/08/03 07:09:05;;;;;;;11.82;5.90;;;17.20;94.80;;;;;;5074409;28;20463;-76
2021/08/03 07:11:33;;;;;;;10.70;4.50;;;17.30;94.70;;;;;;5073046;28;20074;-76
2021/08/03 07:13:59;;;;;;;10.55;4.72;;;17.30;94.60;;;;;;5056400;28;20028;-76
2021/08/03 07:16:27;;;;;;;11.38;4.88;;;17.40;94.50;;;;;;5074760;28;20040;-78
2021/08/03 07:18:56;;;;;;;11.10;5.13;;;17.50;94.40;;;;;;5074336;28;20033;-76
2021/08/03 07:21:27;;;;;;;13.10;5.25;;;17.50;94.30;;;;;;5072851;28;20078;-77
2021/08/03 07:23:57;;;;;;;11.50;4.97;;;17.70;94.30;;;;;;5072897;28;20059;-76
2021/08/03 07:26:24;;;;;;;9.20;4.45;;;17.70;94.10;;;;;;5074176;28;20040;-77
2021/08/03 07:28:49;;;;;;;14.25;5.05;;;17.70;94.00;;;;;;5074191;28;20023;-76
2021/08/03 07:31:15;;;;;;;10.27;4.82;;;17.80;93.90;;;;;;5056390;28;20021;-77
2021/08/03 07:33:41;;;;;;;9.07;4.45;;;17.80;93.70;;;;;;5074188;28;20399;-77
2021/08/03 07:36:07;;;;;;;9.77;4.50;;;17.90;93.70;;;;;;5072640;28;20033;-76
2021/08/03 07:38:32;;;;;;;11.13;4.78;;;17.90;93.70;;;;;;5072452;28;20066;-78
2021/08/03 07:40:58;;;;;;;9.07;4.82;;;18.00;93.70;;;;;;5073984;28;20482;-75
2021/08/03 07:43:24;;;;;;;10.35;5.07;;;18.00;93.60;;;;;;5073674;28;20059;-77
2021/08/03 07:45:50;;;;;;;9.93;4.85;;;18.10;93.70;;;;;;5073557;28;20103;-76
2021/08/03 07:48:16;;;;;;;10.32;4.85;;;18.10;93.50;;;;;;5055916;28;20040;-77
2021/08/03 07:50:41;;;;;;;10.13;4.82;;;18.20;93.50;;;;;;5073706;28;20151;-77
2021/08/03 07:53:07;;;;;;;12.38;4.25;;;18.20;93.50;;;;;;5073529;28;20038;-76
2021/08/03 07:55:33;;;;;;;9.50;4.47;;;18.30;93.40;;;;;;5055098;28;20033;-77
2021/08/03 07:57:59;;;;;;;9.65;4.20;;;18.30;93.40;;;;;;5073155;28;20433;-76
2021/08/03 08:00:25;;;;;;;10.07;4.63;;;18.40;93.30;;;;;;5073269;28;20053;-77
2021/08/03 08:02:51;;;;;;;9.82;4.57;;;18.50;93.20;;;;;;5072202;28;20033;-77
2021/08/03 08:05:17;;;;;;;10.60;4.70;;;18.60;92.90;;;;;;5073412;28;20029;-76
2021/08/03 08:07:42;;;;;;;;;;;18.60;92.80;;;;;;5072309;28;20029;-78
2021/08/03 08:10:08;;;;;;;11.13;4.43;;;18.70;92.80;;;;;;5073227;28;19935;-76
2021/08/03 08:12:34;;;;;;;10.48;4.70;;;18.80;92.80;;;;;;5073121;28;20031;-76
2021/08/03 08:15:00;;;;;;;8.32;4.50;;;18.90;92.60;;;;;;5053580;28;20032;-77
2021/08/03 08:17:26;;;;;;;11.80;5.20;;;19.00;92.50;;;;;;5072936;28;20402;-77
2021/08/03 08:19:51;;;;;;;7.28;3.90;;;19.10;92.20;;;;;;5073227;28;20029;-79
2021/08/03 08:22:17;;;;;;;;;;;19.20;92.00;;;;;;5073411;28;20367;-78
2021/08/03 08:24:44;;;;;;;9.63;4.05;;;19.30;92.00;;;;;;5071475;28;19908;-77
2021/08/03 08:27:10;;;;;;;9.02;4.00;;;19.30;91.80;;;;;;5071509;28;20025;-76
2021/08/03 08:29:36;;;;;;;8.40;4.78;;;19.30;91.60;;;;;;5071792;28;20033;-77
2021/08/03 08:32:03;;;;;;;9.63;5.10;;;19.40;91.50;;;;;;5038746;28;20110;-79
2021/08/03 08:34:28;;;;;;;14.00;4.90;;;19.50;91.40;;;;;;5071675;28;20032;-77
2021/08/03 08:36:54;;;;;;;8.95;4.07;;;19.60;91.20;;;;;;5072402;28;20487;-76
2021/08/03 08:39:19;;;;;;;8.27;3.42;;;19.70;91.00;;;;;;5071186;28;20047;-77
2021/08/03 08:41:45;;;;;;;8.65;4.25;;;19.80;90.70;;;;;;5072741;28;20108;-76
2021/08/03 08:44:11;;;;;;;10.50;3.78;;;19.90;90.50;;;;;;5070417;28;20041;-79
2021/08/03 08:46:38;;;;;;;7.55;3.38;;;20.10;90.40;;;;;;5071614;28;20035;-79
2021/08/03 08:49:06;;;;;;;7.35;3.75;;;20.20;90.10;;;;;;5070531;28;20032;-75
2021/08/03 08:51:32;;;;;;;8.98;3.88;;;20.40;89.60;;;;;;5073390;28;20036;-78
2021/08/03 08:54:01;;;;;;;8.68;3.30;;;20.60;89.20;;;;;;5072490;28;20052;-77
2021/08/03 08:56:28;;;;;;;8.48;3.92;;;20.80;88.80;;;;;;5072336;28;20123;-79
2021/08/03 08:58:53;;;;;;;8.48;3.72;;;21.00;87.90;;;;;;5055758;28;20067;-76
2021/08/03 09:01:19;;;;;;;;;;;21.20;86.90;;;;;;5066712;28;20080;-77
2021/08/03 09:03:45;;;;;;;8.90;4.18;;;21.40;86.70;;;;;;5052507;28;20392;-77
2021/08/03 09:06:10;;;;;;;;;;;21.50;86.00;;;;;;5054200;28;20103;-77
2021/08/03 09:08:39;;;;;;;12.20;3.92;;;21.70;85.20;;;;;;5054046;28;19987;-79
2021/08/03 09:11:12;;;;;;;6.03;3.00;;;21.80;84.80;;;;;;5053813;28;20100;-74
2021/08/03 09:13:56;;;;;;;6.60;3.05;;;22.00;83.50;;;;;;5051303;28;20360;-76
2021/08/03 09:16:26;;;;;;;7.20;3.28;;;22.00;82.30;;;;;;5052674;28;20102;-76
2021/08/03 09:18:54;;;;;;;9.30;3.78;;;22.10;81.60;;;;;;5053087;28;20025;-76
2021/08/03 09:21:29;;;;;;;7.43;3.42;;;22.20;81.00;;;;;;5052437;28;20094;-76
2021/08/03 09:24:01;;;;;;;8.52;3.30;;;22.30;80.00;;;;;;5051265;28;20095;-75
2021/08/03 09:26:40;;;;;;;8.32;3.63;;;22.30;79.40;;;;;;5052851;28;20023;-76
2021/08/03 09:29:09;;;;;;;6.85;2.92;;;22.30;79.10;;;;;;5052560;28;20066;-78
2021/08/03 09:31:36;;;;;;;7.22;3.13;;;22.30;78.90;;;;;;5052462;28;20366;-75
2021/08/03 09:34:10;;;;;;;5.65;2.78;;;22.40;79.00;;;;;;5053100;28;20035;-75
2021/08/03 09:36:50;;;;;;;7.55;3.35;;;22.40;78.10;;;;;;5051530;28;20043;-76
2021/08/03 09:39:38;;;;;;;6.88;3.22;;;22.50;77.60;;;;;;5053061;28;20025;-75
2021/08/03 09:42:16;;;;;;;5.50;2.65;;;22.60;77.20;;;;;;5052561;28;20032;-77
2021/08/03 09:45:05;;;;;;;7.63;3.22;;;22.60;77.20;;;;;;5052605;28;20017;-78
2021/08/03 09:47:34;;;;;;;5.20;2.50;;;22.80;76.70;;;;;;5052235;28;20025;-76
2021/08/03 09:50:06;;;;;;;6.35;3.30;;;22.80;76.30;;;;;;5052234;28;20017;-77
2021/08/03 09:52:36;;;;;;;6.60;3.08;;;22.90;76.10;;;;;;5052724;28;20037;-76
2021/08/03 09:55:19;;;;;;;8.32;4.13;;;22.90;75.90;;;;;;5052943;28;20025;-78
2021/08/03 09:57:46;;;;;;;7.18;2.90;;;23.00;75.70;;;;;;5052380;28;20025;-77
2021/08/03 10:00:38;;;;;;;5.88;2.85;;;23.10;75.00;;;;;;5052472;28;20025;-77
2021/08/03 10:03:06;;;;;;;6.22;2.75;;;23.10;74.70;;;;;;5036428;28;20037;-77
2021/08/03 10:05:34;;;;;;;8.02;2.30;;;23.20;74.30;;;;;;5037853;28;20048;-78
2021/08/03 10:08:00;;;;;;;6.22;3.00;;;23.20;73.30;;;;;;5040607;28;20049;-78
2021/08/03 10:10:27;;;;;;;6.05;2.78;;;23.30;72.90;;;;;;5038614;28;20049;-73
2021/08/03 10:12:52;;;;;;;5.82;2.33;;;23.30;72.30;;;;;;5040022;28;20025;-76
2021/08/03 10:15:18;;;;;;;;;;;23.30;71.60;;;;;;5038322;28;20464;-75
2021/08/03 10:17:43;;;;;;;4.93;2.33;;;23.20;71.50;;;;;;5043180;28;19948;-74
2021/08/03 10:20:14;;;;;;;4.93;2.33;;;23.20;71.40;;;;;;5040808;28;20028;-74
2021/08/03 10:22:52;;;;;;;7.13;3.42;;;23.20;71.30;;;;;;5043474;28;20030;-76
2021/08/03 10:25:20;;;;;;;5.32;2.30;;;23.30;71.30;;;;;;5046240;28;20020;-74
2021/08/03 10:27:49;;;;;;;5.10;2.47;;;23.30;70.80;;;;;;5042683;28;20418;-74
2021/08/03 10:30:27;;;;;;;5.70;2.30;;;23.30;70.60;;;;;;5038937;28;20491;-76
2021/08/03 10:32:54;;;;;;;6.63;3.03;;;23.30;70.60;;;;;;5040104;28;20028;-76
2021/08/03 10:35:49;;;;;;;5.03;2.20;;;23.40;70.80;;;;;;5041025;28;20363;-74
2021/08/03 10:38:17;;;;;;;5.25;2.38;;;23.50;70.60;;;;;;5039072;28;20025;-77
2021/08/03 10:40:49;;;;;;;10.45;2.70;;;23.60;70.30;;;;;;5042714;28;20023;-75
2021/08/03 10:43:24;;;;;;;4.75;2.50;;;23.60;69.30;;;;;;5035393;28;20032;-73
2021/08/03 10:46:10;;;;;;;6.25;2.60;;;23.70;69.60;;;;;;5045156;28;20347;-78
2021/08/03 10:48:38;;;;;;;7.65;3.30;;;23.90;69.20;;;;;;5036540;28;20021;-75
2021/08/03 10:51:13;;;;;;;11.93;5.68;;;23.90;68.90;;;;;;5039259;28;20526;-74
2021/08/03 10:54:02;;;;;;;6.93;3.60;;;24.00;68.30;;;;;;5041802;28;20100;-77
2021/08/03 10:56:29;;;;;;;7.43;2.58;;;24.00;68.20;;;;;;5043658;28;20032;-78
2021/08/03 10:59:35;;;;;;;5.55;3.05;;;24.30;68.10;;;;;;5039990;28;20032;-75
2021/08/03 11:02:23;;;;;;;7.30;3.20;;;24.50;67.30;;;;;;5050902;28;20127;-73
2021/08/03 11:04:51;;;;;;;7.38;2.70;;;24.80;67.20;;;;;;5031137;28;20040;-76
2021/08/03 11:07:32;;;;;;;5.53;2.38;;;25.20;67.00;;;;;;5030319;28;20033;-78
2021/08/03 11:10:19;;;;;;;4.80;2.30;;;25.50;66.10;;;;;;5031960;28;20027;-78
2021/08/03 11:12:49;;;;;;;5.63;2.50;;;26.10;65.90;;;;;;5016867;28;20052;-78
2021/08/03 11:15:21;;;;;;;4.90;2.40;;;26.90;64.90;;;;;;5030304;28;20100;-79
2021/08/03 11:18:01;;;;;;;6.43;2.50;;;27.60;64.00;;;;;;5031524;28;20057;-76
2021/08/03 11:20:36;;;;;;;7.13;3.10;;;27.80;61.80;;;;;;5031413;28;20025;-75
2021/08/03 11:23:07;;;;;;;6.85;2.95;;;27.80;60.70;;;;;;5041726;28;20021;-72
2021/08/03 11:25:34;;;;;;;6.70;2.78;;;27.70;60.40;;;;;;5043320;28;20369;-75
2021/08/03 11:28:16;;;;;;;5.70;2.50;;;27.60;59.80;;;;;;5041761;28;20017;-75
2021/08/03 11:30:43;;;;;;;5.10;2.38;;;27.40;59.50;;;;;;5038703;28;20017;-73
2021/08/03 11:33:11;;;;;;;5.43;2.65;;;27.20;59.30;;;;;;5038929;28;20037;-74
2021/08/03 11:35:37;;;;;;;5.47;2.78;;;26.90;59.10;;;;;;5039446;28;20032;-74
2021/08/03 11:38:08;;;;;;;5.45;2.45;;;26.50;59.10;;;;;;5038484;28;20049;-75
2021/08/03 11:40:34;;;;;;;5.47;2.33;;;26.10;59.30;;;;;;5041560;28;20032;-74
2021/08/03 11:43:00;;;;;;;5.78;2.45;;;25.70;59.40;;;;;;5036642;28;20026;-75
2021/08/03 11:45:27;;;;;;;5.82;2.45;;;25.20;59.90;;;;;;5045780;28;20025;-78
2021/08/03 11:47:55;;;;;;;4.60;2.15;;;24.80;60.30;;;;;;5046019;28;20041;-76
2021/08/03 11:50:34;;;;;;;4.88;2.30;;;24.40;60.90;;;;;;5044245;28;20021;-76
2021/08/03 11:53:22;;;;;;;5.70;2.33;;;24.20;61.40;;;;;;5040285;28;20389;-79
2021/08/03 11:55:50;;;;;;;5.43;2.38;;;24.10;61.90;;;;;;5047261;28;20372;-75
2021/08/03 11:58:20;;;;;;;6.90;2.80;;;24.10;62.40;;;;;;5047009;28;20040;-76
2021/08/03 12:00:46;;;;;;;10.05;5.28;;;24.10;62.70;;;;;;5036600;28;20724;-78
2021/08/03 12:03:12;;;;;;;5.55;2.35;;;24.10;62.70;;;;;;5042145;28;20025;-76
2021/08/03 12:05:38;;;;;;;4.75;2.35;;;24.20;62.40;;;;;;5041717;28;20104;-77
2021/08/03 12:08:04;;;;;;;4.78;2.15;;;24.20;62.20;;;;;;5038016;28;20033;-75
2021/08/03 12:10:38;;;;;;;6.05;2.40;;;24.30;61.90;;;;;;5047900;28;20025;-76
2021/08/03 12:13:06;;;;;;;3.97;1.65;;;24.20;61.70;;;;;;5044961;28;20024;-74
2021/08/03 12:15:45;;;;;;;4.55;2.00;;;24.20;61.50;;;;;;5043925;28;20025;-74
2021/08/03 12:18:10;;;;;;;3.90;1.90;;;24.20;61.30;;;;;;5046675;28;20464;-73
2021/08/03 12:20:42;;;;;;;4.38;1.77;;;24.30;61.30;;;;;;5042657;28;20178;-74
2021/08/03 12:23:38;;;;;;;3.90;1.85;;;24.20;61.10;;;;;;5043515;28;20025;-75
2021/08/03 12:26:16;;;;;;;6.30;1.77;;;24.20;61.40;;;;;;5047265;28;20060;-73
2021/08/03 12:28:52;;;;;;;3.03;1.27;;;24.30;61.20;;;;;;5053502;28;20017;-77
2021/08/03 12:31:32;;;;;;;5.22;1.52;;;24.30;60.30;;;;;;5053466;28;20021;-74
2021/08/03 12:34:17;;;;;;;3.97;1.50;;;24.30;60.40;;;;;;5053852;28;20032;-75
2021/08/03 12:36:53;;;;;;;3.67;1.42;;;24.80;60.90;;;;;;5040005;28;20033;-76
2021/08/03 12:39:25;;;;;;;4.85;2.55;;;25.20;60.40;;;;;;5046377;28;20025;-75
2021/08/03 12:42:11;;;;;;;5.80;2.58;;;25.50;59.80;;;;;;5044568;28;20112;-75
2021/08/03 12:44:40;;;;;;;5.43;2.70;;;25.60;58.90;;;;;;5040769;28;20051;-74
2021/08/03 12:47:07;;;;;;;16.27;4.50;;;25.60;58.60;;;;;;5042576;28;20363;-76
2021/08/03 12:49:35;;;;;;;9.30;3.60;;;25.50;58.70;;;;;;5043120;28;20025;-76
2021/08/03 12:52:14;;;;;;;9.73;3.28;;;25.40;59.00;;;;;;5036814;28;20133;-75
2021/08/03 12:54:41;;;;;;;5.63;2.63;;;25.10;59.20;;;;;;5038147;28;20035;-73
2021/08/03 12:57:09;;;;;;;5.28;2.28;;;24.70;59.60;;;;;;5042167;28;20399;-75
2021/08/03 12:59:39;;;;;;;5.80;2.50;;;24.40;59.70;;;;;;5043927;28;20530;-73
2021/08/03 13:02:07;;;;;;;5.55;2.50;;;24.10;59.80;;;;;;5039436;28;20053;-76
2021/08/03 13:04:33;;;;;;;4.90;2.28;;;24.00;60.40;;;;;;5041780;28;20019;-75